createdAt,value
2023-01-09T00:02:05.702Z,33.99
2023-01-09T00:07:12.815Z,34.07
2023-01-09T00:12:20.048Z,34.06
2023-01-09T00:17:27.238Z,34.19
2023-01-09T00:22:34.400Z,34.27
2023-01-09T00:27:41.610Z,34.25
2023-01-09T00:32:48.820Z,34.28
2023-01-09T00:37:56.011Z,34.46
2023-01-09T00:43:03.226Z,34.45
2023-01-09T00:48:10.439Z,34.65
2023-01-09T00:53:17.630Z,34.56
2023-01-09T00:58:24.826Z,34.54
2023-01-09T01:03:32.055Z,34.62
2023-01-09T01:08:39.259Z,34.75
2023-01-09T01:13:46.418Z,34.65
2023-01-09T01:18:53.662Z,34.77
2023-01-09T01:24:00.779Z,34.85
2023-01-09T01:29:08.071Z,34.90
2023-01-09T01:34:15.268Z,35.01
2023-01-09T01:39:22.417Z,35.10
2023-01-09T01:44:29.666Z,35.17
2023-01-09T01:49:36.886Z,35.19
2023-01-09T01:54:44.774Z,35.19
2023-01-09T01:59:52.811Z,35.22
2023-01-09T02:05:00.033Z,35.26
2023-01-09T02:10:07.234Z,35.24
2023-01-09T02:15:14.467Z,35.33
2023-01-09T02:20:21.785Z,35.32
2023-01-09T02:25:28.958Z,35.36
2023-01-09T02:30:36.164Z,35.51
2023-01-09T02:35:43.374Z,35.62
2023-01-09T02:40:50.563Z,35.71
2023-01-09T02:45:57.870Z,35.77
2023-01-09T02:51:05.067Z,35.81
2023-01-09T02:56:12.255Z,35.81
2023-01-09T03:01:19.593Z,35.80
2023-01-09T03:06:27.730Z,35.81
2023-01-09T03:11:33.922Z,35.75
2023-01-09T03:16:41.147Z,35.87
2023-01-09T03:21:48.432Z,35.73
2023-01-09T03:26:55.792Z,35.61
2023-01-09T03:32:03.011Z,35.54
2023-01-09T03:37:10.235Z,35.63
2023-01-09T03:42:17.433Z,35.72
2023-01-09T03:47:24.576Z,35.77
2023-01-09T03:52:31.789Z,35.74
2023-01-09T03:57:38.966Z,35.90
2023-01-09T04:02:47.162Z,36.45
2023-01-09T04:07:53.426Z,37.66
2023-01-09T04:13:00.664Z,37.27
2023-01-09T04:18:07.877Z,37.38
2023-01-09T04:23:15.149Z,36.91
2023-01-09T04:28:22.254Z,36.55
2023-01-09T04:33:29.471Z,36.51
2023-01-09T04:38:36.710Z,36.21
2023-01-09T04:43:43.869Z,36.24
2023-01-09T04:48:51.096Z,36.17
2023-01-09T04:53:58.313Z,35.81
2023-01-09T04:59:05.536Z,35.90
2023-01-09T05:04:12.955Z,35.92
2023-01-09T05:09:20.124Z,35.91
2023-01-09T05:14:27.314Z,35.84
2023-01-09T05:19:34.601Z,35.83
2023-01-09T05:24:41.712Z,35.83
2023-01-09T05:29:48.879Z,35.90
2023-01-09T05:34:56.116Z,35.82
2023-01-09T05:40:03.336Z,36.00
2023-01-09T05:45:10.530Z,35.95
2023-01-09T05:50:17.749Z,35.92
2023-01-09T05:55:25.110Z,36.51
2023-01-09T06:00:32.231Z,36.33
2023-01-09T06:05:39.465Z,36.32
2023-01-09T06:10:46.799Z,36.26
2023-01-09T06:15:54.067Z,36.10
2023-01-09T06:21:01.186Z,35.80
2023-01-09T06:26:08.430Z,35.87
2023-01-09T06:31:15.699Z,35.84
2023-01-09T06:36:22.919Z,35.74
2023-01-09T06:41:30.391Z,35.71
2023-01-09T06:46:37.525Z,35.52
2023-01-09T06:51:44.739Z,35.65
2023-01-09T06:56:51.932Z,35.70
2023-01-09T07:01:59.270Z,35.75
2023-01-09T07:07:06.336Z,35.81
2023-01-09T07:12:13.527Z,35.72
2023-01-09T07:17:20.745Z,35.43
2023-01-09T07:22:27.940Z,34.94
2023-01-09T07:27:35.176Z,35.07
2023-01-09T07:32:42.357Z,34.72
2023-01-09T07:37:49.592Z,34.54
2023-01-09T07:42:56.776Z,34.09
2023-01-09T07:48:03.947Z,34.33
2023-01-09T07:53:11.150Z,34.09
2023-01-09T07:58:18.477Z,33.91
2023-01-09T08:03:25.603Z,33.71
2023-01-09T08:08:32.849Z,33.72
2023-01-09T08:13:40.107Z,34.39
2023-01-09T08:18:47.307Z,34.90
2023-01-09T08:23:54.517Z,35.19
2023-01-09T08:29:01.726Z,35.10
2023-01-09T08:34:08.910Z,34.74
2023-01-09T08:39:16.117Z,34.42
2023-01-09T08:44:23.342Z,34.76
2023-01-09T08:49:30.471Z,34.71
2023-01-09T08:54:37.694Z,34.53
2023-01-09T08:59:44.931Z,34.46
2023-01-09T09:04:52.096Z,34.35
2023-01-09T09:09:59.298Z,34.26
2023-01-09T09:15:06.590Z,34.36
2023-01-09T09:20:13.783Z,33.97
2023-01-09T09:25:20.956Z,32.29
2023-01-09T09:30:28.168Z,32.99
2023-01-09T09:35:35.407Z,32.80
2023-01-09T09:40:42.583Z,32.49
2023-01-09T09:45:49.804Z,32.34
2023-01-09T09:50:56.987Z,32.27
2023-01-09T09:56:04.143Z,32.31
2023-01-09T10:01:11.388Z,32.15
2023-01-09T10:06:18.528Z,32.38
2023-01-09T10:11:25.762Z,32.20
2023-01-09T10:16:33.024Z,32.11
2023-01-09T10:21:40.206Z,32.23
2023-01-09T10:26:47.425Z,32.32
2023-01-09T10:31:54.686Z,32.84
2023-01-09T10:37:02.056Z,32.84
2023-01-09T10:42:09.155Z,33.02
2023-01-09T10:47:16.374Z,32.94
2023-01-09T10:52:23.552Z,32.88
2023-01-09T10:57:30.733Z,32.65
2023-01-09T11:02:37.948Z,32.57
2023-01-09T11:07:45.089Z,32.44
2023-01-09T11:12:52.276Z,32.28
2023-01-09T11:17:59.492Z,32.21
2023-01-09T11:23:06.661Z,32.00
2023-01-09T11:28:13.808Z,31.46
2023-01-09T11:33:21.010Z,31.41
2023-01-09T11:38:28.170Z,31.65
2023-01-09T11:43:35.457Z,32.05
2023-01-09T11:48:42.632Z,32.18
2023-01-09T11:53:49.798Z,32.09
2023-01-09T11:58:57.053Z,32.04
2023-01-09T12:04:04.264Z,32.08
2023-01-09T12:09:11.396Z,32.27
2023-01-09T12:14:18.613Z,32.23
2023-01-09T12:19:25.890Z,31.97
2023-01-09T12:24:33.078Z,32.30
2023-01-09T12:29:40.320Z,32.06
2023-01-09T12:34:47.514Z,31.77
2023-01-09T12:39:54.688Z,31.76
2023-01-09T12:45:01.970Z,31.74
2023-01-09T12:50:09.170Z,31.73
2023-01-09T12:55:16.347Z,31.30
2023-01-09T13:00:23.518Z,31.67
2023-01-09T13:05:30.806Z,31.68
2023-01-09T13:10:38.000Z,31.87
2023-01-09T13:15:51.401Z,31.45
2023-01-09T13:20:58.582Z,30.29
2023-01-09T13:26:05.745Z,29.08
2023-01-09T13:31:13.022Z,29.82
2023-01-09T13:36:20.316Z,29.96
2023-01-09T13:41:27.576Z,29.89
2023-01-09T13:46:34.786Z,29.18
2023-01-09T13:51:42.084Z,29.63
2023-01-09T13:56:49.226Z,28.45
2023-01-09T14:01:56.491Z,28.68
2023-01-09T14:07:03.716Z,29.00
2023-01-09T14:12:10.897Z,29.18
2023-01-09T14:17:18.129Z,29.53
2023-01-09T14:22:25.359Z,29.85
2023-01-09T14:27:32.475Z,29.60
2023-01-09T14:32:39.700Z,30.21
2023-01-09T14:37:46.964Z,30.51
2023-01-09T14:42:54.199Z,30.67
2023-01-09T14:48:01.425Z,30.83
2023-01-09T14:53:08.724Z,30.98
2023-01-09T14:58:15.933Z,31.09
2023-01-09T15:03:23.107Z,31.13
2023-01-09T15:08:30.307Z,31.24
2023-01-09T15:13:37.593Z,31.39
2023-01-09T15:18:44.773Z,31.53
2023-01-09T15:23:52.070Z,31.64
2023-01-09T15:28:59.179Z,31.82
2023-01-09T15:34:06.393Z,32.04
2023-01-09T15:39:13.649Z,32.14
2023-01-09T15:44:20.776Z,32.56
2023-01-09T15:49:28.021Z,32.31
2023-01-09T15:54:35.307Z,32.33
2023-01-09T15:59:42.458Z,32.70
2023-01-09T16:04:49.635Z,32.72
2023-01-09T16:09:56.917Z,32.53
2023-01-09T16:15:04.048Z,33.07
2023-01-09T16:20:11.297Z,33.07
2023-01-09T16:25:18.530Z,32.80
2023-01-09T16:30:25.693Z,33.12
2023-01-09T16:35:32.876Z,32.66
2023-01-09T16:40:40.152Z,32.62
2023-01-09T16:45:47.439Z,32.61
2023-01-09T16:50:54.642Z,32.51
2023-01-09T16:56:01.848Z,32.46
2023-01-09T17:01:09.055Z,32.38
2023-01-09T17:06:16.224Z,32.39
2023-01-09T17:11:23.565Z,32.38
2023-01-09T17:16:30.826Z,32.36
2023-01-09T17:21:37.962Z,32.31
2023-01-09T17:26:45.216Z,32.30
2023-01-09T17:31:52.575Z,32.33
2023-01-09T17:36:59.819Z,32.31
2023-01-09T17:42:07.151Z,32.27
2023-01-09T17:47:14.286Z,32.43
2023-01-09T17:52:21.439Z,32.30
2023-01-09T17:57:28.636Z,32.14
2023-01-09T18:02:35.921Z,31.78
2023-01-09T18:07:43.309Z,31.95
2023-01-09T18:12:50.646Z,31.75
2023-01-09T18:17:57.828Z,31.79
2023-01-09T18:23:05.017Z,31.82
2023-01-09T18:28:12.246Z,31.82
2023-01-09T18:33:19.588Z,31.81
2023-01-09T18:38:29.459Z,31.79
2023-01-09T18:43:34.011Z,31.76
2023-01-09T18:48:41.457Z,31.75
2023-01-09T18:53:48.688Z,31.79
2023-01-09T18:58:55.956Z,31.77
2023-01-09T19:04:03.158Z,31.80
2023-01-09T19:09:10.311Z,31.87
2023-01-09T19:14:17.825Z,31.94
2023-01-09T19:19:25.137Z,31.94
2023-01-09T19:24:32.331Z,31.91
2023-01-09T19:29:39.561Z,31.95
2023-01-09T19:34:46.783Z,31.94
2023-01-09T19:39:54.008Z,31.95
2023-01-09T19:45:02.600Z,31.95
2023-01-09T19:50:10.283Z,31.95
2023-01-09T19:55:17.689Z,31.90
2023-01-09T20:00:25.226Z,32.64
2023-01-09T20:05:32.940Z,32.87
2023-01-09T20:10:40.299Z,33.03
2023-01-09T20:15:47.522Z,33.09
2023-01-09T20:20:55.040Z,33.09
2023-01-09T20:26:02.661Z,33.28
2023-01-09T20:31:10.466Z,33.23
2023-01-09T20:36:17.801Z,33.46
2023-01-09T20:41:25.042Z,33.46
2023-01-09T20:46:32.266Z,33.79
2023-01-09T20:51:39.429Z,33.48
2023-01-09T20:56:46.668Z,33.36
2023-01-09T21:01:53.941Z,33.46
2023-01-09T21:07:01.148Z,33.26
2023-01-09T21:12:08.475Z,33.17
2023-01-09T21:17:15.704Z,33.30
2023-01-09T21:22:22.939Z,33.21
2023-01-09T21:27:30.160Z,33.17
2023-01-09T21:32:37.461Z,33.18
2023-01-09T21:37:44.662Z,33.30
2023-01-09T21:42:51.880Z,33.30
2023-01-09T21:47:59.074Z,33.38
2023-01-09T21:53:06.221Z,33.46
2023-01-09T21:58:13.379Z,33.42
2023-01-09T22:03:20.624Z,33.39
2023-01-09T22:08:27.799Z,33.29
2023-01-09T22:13:34.999Z,33.15
2023-01-09T22:18:42.311Z,33.82
2023-01-09T22:23:49.511Z,33.26
2023-01-09T22:28:56.702Z,33.23
2023-01-09T22:34:03.903Z,33.02
2023-01-09T22:39:11.114Z,32.87
2023-01-09T22:44:18.316Z,32.70
2023-01-09T22:49:29.956Z,32.65
2023-01-09T22:54:32.740Z,32.43
2023-01-09T22:59:39.949Z,31.87
2023-01-09T23:04:47.170Z,32.44
2023-01-09T23:09:54.292Z,32.24
2023-01-09T23:15:01.544Z,32.42
2023-01-09T23:20:08.776Z,31.93
2023-01-09T23:25:15.954Z,32.10
2023-01-09T23:30:23.142Z,32.11
2023-01-09T23:35:30.410Z,32.15
2023-01-09T23:40:37.568Z,32.04
2023-01-09T23:45:44.880Z,31.83
2023-01-09T23:50:51.969Z,31.59
2023-01-09T23:55:59.135Z,31.47
